Time;durP1;ratioP1;P1;durP2;ratioP2;P2;SDS_P1;SDS_P2;PMS_P1;PMS_P2;Temp;Humidity;BMP_temperature;BMP_pressure;BME280_temperature;BME280_humidity;BME280_pressure;Samples;Min_cycle;Max_cycle;Signal;HPM_P1;HPM_P2
2021/03/20 00:00:16;;;;;;;5.65;1.50;;;;;;;2.35;59.53;102299.94;5113078;27;20027;-73
2021/03/20 00:02:42;;;;;;;6.72;1.90;;;;;;;2.40;59.97;102288.59;5096539;27;20062;-73
2021/03/20 00:05:08;;;;;;;4.70;1.73;;;;;;;2.41;58.61;102284.91;5131443;27;20031;-72
2021/03/20 00:07:34;;;;;;;4.72;1.50;;;;;;;2.43;58.36;102285.56;5112991;27;20031;-73
2021/03/20 00:09:59;;;;;;;4.85;1.30;;;;;;;2.45;58.02;102291.56;5111776;27;20030;-73
2021/03/20 00:12:25;;;;;;;3.90;1.50;;;;;;;2.49;58.15;102290.22;5094008;28;20080;-73
2021/03/20 00:14:50;;;;;;;3.80;1.67;;;;;;;2.53;58.48;102298.75;5082466;28;20022;-72
2021/03/20 00:17:16;;;;;;;5.72;1.50;;;;;;;2.54;58.17;102301.28;5114484;28;20030;-73
2021/03/20 00:19:41;;;;;;;8.50;1.63;;;;;;;2.58;57.55;102296.34;5131577;28;20019;-72
2021/03/20 00:22:07;;;;;;;5.80;1.73;;;;;;;2.60;57.64;102300.53;5125780;27;20480;-73
2021/03/20 00:24:32;;;;;;;5.13;1.40;;;;;;;2.62;57.87;102295.81;5129861;28;20035;-73
2021/03/20 00:26:57;;;;;;;5.85;1.80;;;;;;;2.65;58.23;102298.13;5113565;28;20020;-73
2021/03/20 00:29:23;;;;;;;3.85;1.30;;;;;;;2.67;58.59;102300.63;5132410;28;20031;-73
2021/03/20 00:31:48;;;;;;;4.38;1.98;;;;;;;2.69;58.57;102301.28;5131136;28;20030;-73
2021/03/20 00:34:14;;;;;;;5.13;1.33;;;;;;;2.69;58.71;102289.66;5128311;28;20038;-72
2021/03/20 00:36:39;;;;;;;3.42;1.52;;;;;;;2.69;58.87;102273.53;5129236;27;20023;-74
2021/03/20 00:39:06;;;;;;;3.65;1.77;;;;;;;2.69;60.12;102276.22;5113743;28;20015;-72
2021/03/20 00:41:31;;;;;;;5.55;1.88;;;;;;;2.67;60.59;102263.78;5112953;28;20448;-73
2021/03/20 00:43:56;;;;;;;4.65;1.90;;;;;;;2.66;60.82;102266.63;5113933;28;20038;-72
2021/03/20 00:46:22;;;;;;;8.15;2.10;;;;;;;2.66;60.50;102272.84;5129768;28;20027;-73
2021/03/20 00:48:47;;;;;;;5.70;2.00;;;;;;;2.67;61.66;102261.09;5131951;28;20729;-73
2021/03/20 00:51:13;;;;;;;3.05;1.42;;;;;;;2.69;61.46;102255.50;5129791;27;20038;-73
2021/03/20 00:53:38;;;;;;;6.97;2.15;;;;;;;2.67;61.68;102261.09;5130850;28;20034;-74
2021/03/20 00:56:04;;;;;;;6.80;1.73;;;;;;;2.69;61.71;102265.44;5130878;27;20041;-72
2021/03/20 00:58:35;;;;;;;7.95;2.13;;;;;;;2.66;62.33;102259.41;5113259;28;20027;-73
2021/03/20 01:01:14;;;;;;;5.47;2.33;;;;;;;2.66;62.22;102259.41;5112809;28;20027;-73
2021/03/20 01:03:40;;;;;;;6.93;2.03;;;;;;;2.67;62.25;102258.41;5132299;28;20118;-73
2021/03/20 01:06:06;;;;;;;5.05;1.73;;;;;;;2.67;61.92;102258.41;5126233;27;20103;-72
2021/03/20 01:08:32;;;;;;;3.67;1.60;;;;;;;2.68;62.51;102251.16;5121660;28;20035;-72
2021/03/20 01:10:57;;;;;;;6.00;2.30;;;;;;;2.67;62.62;102253.00;5129913;28;20110;-74
2021/03/20 01:13:23;;;;;;;5.70;2.58;;;;;;;2.67;63.10;102247.63;5097711;27;20106;-74
2021/03/20 01:15:48;;;;;;;4.75;1.92;;;;;;;2.67;62.94;102236.00;5115821;27;20487;-74
2021/03/20 01:18:14;;;;;;;3.90;1.95;;;;;;;2.67;63.40;102226.06;5134797;27;20019;-76
2021/03/20 01:20:40;;;;;;;5.47;1.98;;;;;;;2.68;63.06;102226.91;5134546;27;20023;-74
2021/03/20 01:23:05;;;;;;;5.22;1.65;;;;;;;2.70;63.74;102224.00;5117322;27;20023;-74
2021/03/20 01:25:32;;;;;;;8.55;1.98;;;;;;;2.71;63.41;102225.69;5116443;27;20031;-73
2021/03/20 01:27:57;;;;;;;5.95;1.70;;;;;;;2.73;63.71;102212.88;5115758;27;20136;-74
2021/03/20 01:30:25;;;;;;;3.25;1.45;;;;;;;2.74;64.03;102214.56;5134050;27;20031;-72
2021/03/20 01:32:51;;;;;;;8.00;1.88;;;;;;;2.75;64.17;102210.81;5100276;27;20022;-73
2021/03/20 01:35:16;;;;;;;5.40;2.17;;;;;;;2.76;63.76;102218.72;5116196;27;20495;-73
2021/03/20 01:37:42;;;;;;;3.10;1.52;;;;;;;2.79;63.69;102201.38;5117069;27;20019;-74
2021/03/20 01:40:08;;;;;;;3.70;1.20;;;;;;;2.82;63.85;102203.69;5098612;27;20020;-73
2021/03/20 01:42:33;;;;;;;6.57;1.45;;;;;;;2.86;63.18;102186.97;5113869;27;20027;-75
2021/03/20 01:45:12;;;;;;;3.03;1.58;;;;;;;2.90;63.84;102190.09;5098830;27;20023;-75
2021/03/20 01:47:46;;;;;;;6.50;1.50;;;;;;;2.93;63.51;102187.03;5116567;27;20043;-73
2021/03/20 01:50:14;;;;;;;5.68;1.40;;;;;;;2.97;63.63;102185.63;5098212;27;20106;-73
2021/03/20 01:52:41;;;;;;;7.07;2.20;;;;;;;2.99;63.65;102175.50;5116310;27;20390;-74
2021/03/20 01:55:15;;;;;;;5.47;2.65;;;;;;;3.02;63.81;102164.34;5101346;28;20106;-74
2021/03/20 01:57:41;;;;;;;6.80;1.95;;;;;;;3.05;64.10;102174.72;5080743;27;20058;-74
2021/03/20 02:00:38;;;;;;;7.43;2.10;;;;;;;3.05;64.03;102174.72;5111042;27;20468;-74
2021/03/20 02:03:27;;;;;;;7.75;1.73;;;;;;;3.07;64.52;102172.69;5116761;27;20055;-75
2021/03/20 02:05:53;;;;;;;9.23;2.40;;;;;;;3.09;64.57;102162.56;5133391;27;20026;-74
2021/03/20 02:08:18;;;;;;;4.47;2.28;;;;;;;3.10;64.98;102166.09;5098304;27;20088;-74
2021/03/20 02:10:44;;;;;;;8.05;2.88;;;;;;;3.11;65.23;102157.81;5130266;27;20034;-73
2021/03/20 02:13:13;;;;;;;13.10;2.72;;;;;;;3.10;65.65;102156.13;5099864;28;20457;-73
2021/03/20 02:15:46;;;;;;;8.05;1.95;;;;;;;3.09;65.58;102141.00;5085886;27;20032;-73
2021/03/20 02:18:29;;;;;;;7.00;2.80;;;;;;;3.08;65.58;102139.34;5094685;27;20029;-73
2021/03/20 02:21:18;;;;;;;8.20;3.05;;;;;;;3.08;65.94;102133.09;5097603;27;20084;-74
2021/03/20 02:24:14;;;;;;;6.35;2.17;;;;;;;3.09;66.10;102127.53;5123862;27;20023;-73
2021/03/20 02:26:58;;;;;;;6.20;1.90;;;;;;;3.09;66.57;102124.00;5113939;27;20027;-73
2021/03/20 02:29:53;;;;;;;7.78;2.30;;;;;;;3.05;66.18;102131.63;5132612;27;20531;-72
2021/03/20 02:32:27;;;;;;;9.63;2.10;;;;;;;3.06;66.58;102121.72;5111064;27;20046;-74
2021/03/20 02:35:11;;;;;;;10.52;2.83;;;;;;;3.05;67.22;102114.63;5132138;27;20051;-74
2021/03/20 02:37:42;;;;;;;13.20;2.85;;;;;;;3.05;67.00;102115.44;5133324;27;20030;-73
2021/03/20 02:40:27;;;;;;;5.35;2.35;;;;;;;3.05;67.41;102109.25;5133617;27;20019;-74
2021/03/20 02:43:07;;;;;;;9.10;2.80;;;;;;;3.07;67.62;102099.09;5114825;27;20050;-73
2021/03/20 02:45:40;;;;;;;9.38;2.40;;;;;;;3.06;67.67;102117.16;5130938;27;20160;-73
2021/03/20 02:48:16;;;;;;;10.57;3.28;;;;;;;3.07;67.44;102116.09;5106871;27;20031;-74
2021/03/20 02:51:09;;;;;;;7.95;2.42;;;;;;;3.05;67.93;102099.28;5080079;27;20032;-74
2021/03/20 02:53:44;;;;;;;10.60;3.15;;;;;;;3.08;67.65;102098.94;5105283;27;20489;-73
2021/03/20 02:56:13;;;;;;;6.07;2.22;;;;;;;3.11;68.05;102087.75;5103725;27;20076;-73
2021/03/20 02:58:58;;;;;;;9.20;2.38;;;;;;;3.10;67.85;102075.31;5098941;27;20464;-74
2021/03/20 03:01:24;;;;;;;10.30;2.58;;;;;;;3.11;68.93;102071.59;5109931;27;20034;-73
2021/03/20 03:03:49;;;;;;;8.40;2.40;;;;;;;3.12;68.91;102067.03;5098413;27;20102;-74
2021/03/20 03:06:37;;;;;;;5.85;2.28;;;;;;;3.10;68.97;102053.75;5076828;28;20027;-73
2021/03/20 03:09:05;;;;;;;7.75;1.90;;;;;;;3.13;68.96;102057.09;5113551;27;20523;-74
2021/03/20 03:11:35;;;;;;;6.57;2.50;;;;;;;3.10;69.71;102042.97;5097075;27;20579;-73
2021/03/20 03:14:23;;;;;;;7.93;2.78;;;;;;;3.13;69.89;102043.63;5097837;27;20035;-74
2021/03/20 03:16:51;;;;;;;12.30;2.80;;;;;;;3.14;69.89;102050.66;5089107;28;20023;-74
2021/03/20 03:19:34;;;;;;;9.90;2.83;;;;;;;3.14;69.80;102042.56;5096851;27;20085;-74
2021/03/20 03:22:02;;;;;;;5.93;2.05;;;;;;;3.16;70.81;102035.13;5132761;27;20101;-73
2021/03/20 03:24:28;;;;;;;13.18;3.50;;;;;;;3.15;70.39;102033.47;5115028;27;20064;-73
2021/03/20 03:26:57;;;;;;;8.65;2.67;;;;;;;3.16;71.13;102035.13;5094371;27;20023;-74
2021/03/20 03:29:25;;;;;;;8.15;2.17;;;;;;;3.17;71.10;102031.44;5114569;27;20023;-73
2021/03/20 03:32:06;;;;;;;11.75;3.45;;;;;;;3.16;71.23;102032.44;5094079;27;20097;-73
2021/03/20 03:34:51;;;;;;;7.85;2.60;;;;;;;3.16;71.45;102041.34;5115336;27;20034;-73
2021/03/20 03:37:45;;;;;;;7.22;2.90;;;;;;;3.16;71.22;102044.06;5111939;27;20039;-72
2021/03/20 03:40:18;;;;;;;18.80;3.08;;;;;;;3.17;71.97;102036.81;5098381;27;20457;-74
2021/03/20 03:42:47;;;;;;;8.75;2.90;;;;;;;3.19;71.61;102034.75;5097612;27;20031;-73
2021/03/20 03:45:15;;;;;;;9.68;2.75;;;;;;;3.21;72.06;102030.00;5113978;27;20396;-73
2021/03/20 03:47:40;;;;;;;7.65;3.00;;;;;;;3.21;71.92;102017.34;5097132;27;20122;-73
2021/03/20 03:50:11;;;;;;;7.18;3.13;;;;;;;3.22;71.99;102023.56;5114860;27;20023;-73
2021/03/20 03:52:36;;;;;;;9.32;3.13;;;;;;;3.23;72.76;102009.09;5096027;27;20027;-74
2021/03/20 03:55:03;;;;;;;12.32;3.63;;;;;;;3.23;72.56;102009.09;5097951;27;20035;-73
2021/03/20 03:57:58;;;;;;;13.77;4.18;;;;;;;3.25;72.86;101996.25;5113055;27;20083;-74
2021/03/20 04:00:29;;;;;;;9.65;3.15;;;;;;;3.24;73.50;101981.09;5113607;27;20637;-74
2021/03/20 04:03:22;;;;;;;12.07;3.10;;;;;;;3.24;73.22;101967.63;5131728;27;20023;-74
2021/03/20 04:06:09;;;;;;;7.78;2.63;;;;;;;3.26;73.54;101966.41;5098800;27;20373;-75
2021/03/20 04:08:37;;;;;;;9.43;3.53;;;;;;;3.25;73.82;101964.75;5110457;27;20464;-73
2021/03/20 04:11:23;;;;;;;9.48;3.70;;;;;;;3.24;74.17;101957.66;5131902;27;21485;-73
2021/03/20 04:14:04;;;;;;;10.95;3.10;;;;;;;3.24;74.04;101963.06;5099381;28;20118;-73
2021/03/20 04:16:58;;;;;;;8.00;3.73;;;;;;;3.26;74.13;101949.41;5113202;28;20197;-74
2021/03/20 04:19:47;;;;;;;8.05;2.80;;;;;;;3.28;74.75;101950.06;5117149;28;20080;-73
2021/03/20 04:22:25;;;;;;;7.88;3.05;;;;;;;3.28;74.50;101933.88;5096819;28;20023;-74
2021/03/20 04:24:53;;;;;;;12.00;3.88;;;;;;;3.29;74.93;101932.84;5112228;28;20556;-73
2021/03/20 04:27:21;;;;;;;8.90;3.30;;;;;;;3.30;75.32;101929.09;5113568;28;20023;-73
2021/03/20 04:30:23;;;;;;;11.35;3.75;;;;;;;3.28;75.08;101923.09;5097527;28;20058;-73
2021/03/20 04:32:51;;;;;;;9.13;3.28;;;;;;;3.29;75.05;101928.28;5094825;28;20043;-73
2021/03/20 04:35:28;;;;;;;11.77;3.28;;;;;;;3.31;75.56;101930.78;5090030;28;20031;-73
2021/03/20 04:37:54;;;;;;;15.15;4.10;;;;;;;3.33;75.44;101923.34;5113281;28;20413;-73
2021/03/20 04:40:44;;;;;;;8.23;3.50;;;;;;;3.33;75.90;101932.25;5093846;28;20058;-73
2021/03/20 04:43:12;;;;;;;10.48;4.18;;;;;;;3.34;75.18;101928.53;5090349;28;20028;-74
2021/03/20 04:45:55;;;;;;;11.15;4.75;;;;;;;3.37;75.88;101929.16;5113122;28;20042;-73
2021/03/20 04:48:28;;;;;;;14.85;4.10;;;;;;;3.36;75.93;101933.72;5092677;28;20459;-74
2021/03/20 04:51:24;;;;;;;9.73;3.58;;;;;;;3.37;75.88;101929.16;5110426;28;20110;-73
2021/03/20 04:53:51;;;;;;;13.35;3.92;;;;;;;3.36;76.17;101912.16;5113287;28;20028;-75
2021/03/20 04:56:18;;;;;;;10.20;4.30;;;;;;;3.36;76.16;101922.13;5114479;28;20031;-73
2021/03/20 04:59:04;;;;;;;11.63;3.97;;;;;;;3.36;76.21;101920.25;5095707;28;20027;-73
2021/03/20 05:01:43;;;;;;;10.15;3.60;;;;;;;3.38;76.02;101915.47;5106531;28;20045;-74
2021/03/20 05:04:12;;;;;;;11.43;4.65;;;;;;;3.38;76.24;101923.56;5113127;28;20020;-73
2021/03/20 05:06:38;;;;;;;10.95;4.63;;;;;;;3.39;76.30;101914.47;5096508;28;20395;-72
2021/03/20 05:09:05;;;;;;;13.10;4.03;;;;;;;3.39;76.28;101911.75;5114112;28;20020;-73
2021/03/20 05:11:53;;;;;;;9.68;4.70;;;;;;;3.39;76.54;101903.66;5096150;28;20529;-74
2021/03/20 05:14:28;;;;;;;14.30;4.78;;;;;;;3.40;76.62;101893.72;5114144;28;20753;-73
2021/03/20 05:16:58;;;;;;;9.18;3.95;;;;;;;3.42;76.77;101889.78;5113259;28;20050;-74
2021/03/20 05:19:25;;;;;;;10.20;4.13;;;;;;;3.43;76.54;101877.97;5097148;28;20042;-73
2021/03/20 05:21:50;;;;;;;12.98;4.28;;;;;;;3.45;77.27;101883.16;5094734;28;20060;-74
2021/03/20 05:24:18;;;;;;;10.65;4.47;;;;;;;3.45;77.28;101869.69;5095406;28;20440;-74
2021/03/20 05:26:44;;;;;;;12.93;3.70;;;;;;;3.45;77.60;101873.22;5114132;28;20136;-74
2021/03/20 05:29:09;;;;;;;10.32;4.65;;;;;;;3.47;77.35;101867.63;5113965;28;20480;-74
2021/03/20 05:31:35;;;;;;;13.18;4.55;;;;;;;3.49;77.43;101861.00;5111487;28;20030;-74
2021/03/20 05:34:17;;;;;;;12.60;4.50;;;;;;;3.50;77.27;101849.19;5105552;28;20019;-73
2021/03/20 05:36:43;;;;;;;11.70;4.50;;;;;;;3.51;77.31;101855.41;5109560;28;20028;-74
2021/03/20 05:39:08;;;;;;;14.32;4.40;;;;;;;3.51;77.83;101858.94;5113777;28;20070;-72
2021/03/20 05:41:46;;;;;;;11.68;5.18;;;;;;;3.51;78.02;101850.84;5111748;28;20461;-73
2021/03/20 05:44:35;;;;;;;10.32;4.55;;;;;;;3.51;77.68;101840.06;5107678;28;20107;-72
2021/03/20 05:47:16;;;;;;;15.68;4.78;;;;;;;3.52;78.13;101833.66;5080252;28;20043;-73
2021/03/20 05:49:52;;;;;;;9.50;4.70;;;;;;;3.54;77.97;101836.94;5088491;28;20051;-74
2021/03/20 05:52:23;;;;;;;11.25;5.20;;;;;;;3.54;77.92;101841.50;5082966;28;20459;-73
2021/03/20 05:54:58;;;;;;;14.95;4.78;;;;;;;3.56;77.70;101842.16;5114663;28;20059;-73
2021/03/20 05:57:34;;;;;;;10.18;4.55;;;;;;;3.55;78.39;101830.53;5113466;27;20055;-73
2021/03/20 06:00:06;;;;;;;10.82;4.90;;;;;;;3.57;78.34;101830.31;5095762;28;20035;-74
2021/03/20 06:02:38;;;;;;;12.23;4.40;;;;;;;3.59;78.20;101843.63;5111975;28;20023;-73
2021/03/20 06:05:25;;;;;;;11.07;4.10;;;;;;;3.60;78.90;101837.19;5111169;28;20481;-72
2021/03/20 06:08:15;;;;;;;17.55;5.93;;;;;;;3.60;78.78;101834.50;5097120;28;20031;-74
2021/03/20 06:10:56;;;;;;;14.32;4.45;;;;;;;3.65;79.16;101834.72;5112401;27;20035;-73
2021/03/20 06:13:33;;;;;;;16.70;7.10;;;;;;;3.64;79.23;101836.59;5091611;28;20028;-72
2021/03/20 06:16:33;;;;;;;13.88;6.10;;;;;;;3.68;78.60;101834.31;5109418;28;20019;-72
2021/03/20 06:19:13;;;;;;;11.00;5.60;;;;;;;3.69;79.21;101825.19;5112537;28;20096;-73
2021/03/20 06:21:48;;;;;;;11.32;5.57;;;;;;;3.71;78.95;101828.50;5113300;28;20311;-73
2021/03/20 06:24:42;;;;;;;14.25;5.00;;;;;;;3.72;79.56;101819.41;5112294;28;20423;-73
2021/03/20 06:27:12;;;;;;;13.10;4.97;;;;;;;3.75;79.29;101816.28;5099056;28;22021;-73
2021/03/20 06:29:40;;;;;;;9.45;4.55;;;;;;;3.75;79.25;101808.19;5109813;28;20107;-73
2021/03/20 06:32:21;;;;;;;16.17;5.10;;;;;;;3.76;79.31;101809.84;5109003;27;20058;-73
2021/03/20 06:35:12;;;;;;;14.25;5.05;;;;;;;3.78;79.54;101813.19;5106844;28;20069;-73
2021/03/20 06:37:39;;;;;;;15.35;5.28;;;;;;;3.81;79.80;101811.94;5100304;28;20442;-73
2021/03/20 06:40:39;;;;;;;12.73;3.78;;;;;;;3.84;79.97;101806.97;5093390;28;20019;-73
2021/03/20 06:43:05;;;;;;;16.52;4.57;;;;;;;3.87;80.22;101806.56;5095552;28;20051;-73
2021/03/20 06:45:31;;;;;;;15.85;5.20;;;;;;;3.88;79.72;101802.84;5111720;27;20481;-73
2021/03/20 06:48:05;;;;;;;11.85;4.63;;;;;;;3.88;80.00;101802.84;5107024;27;20047;-72
2021/03/20 06:50:38;;;;;;;11.55;5.43;;;;;;;3.89;79.98;101809.88;5110500;28;20031;-72
2021/03/20 06:53:05;;;;;;;11.85;4.85;;;;;;;3.92;80.32;101805.97;5103380;28;20423;-73
2021/03/20 06:55:38;;;;;;;8.48;4.57;;;;;;;3.91;80.48;101802.44;5090629;28;20032;-72
2021/03/20 06:58:33;;;;;;;13.38;6.13;;;;;;;3.94;80.20;101809.28;5111184;28;20380;-73
2021/03/20 07:01:00;;;;;;;18.95;6.47;;;;;;;3.96;80.54;101783.78;5094803;28;20560;-73
2021/03/20 07:03:44;;;;;;;15.70;6.15;;;;;;;3.98;80.08;101773.59;5084973;28;20376;-73
2021/03/20 07:06:45;;;;;;;15.60;5.05;;;;;;;4.02;80.23;101754.31;5113426;28;20023;-73
2021/03/20 07:09:10;;;;;;;14.57;4.55;;;;;;;4.05;80.30;101753.88;5108685;28;20027;-73
2021/03/20 07:12:20;;;;;;;10.60;5.00;;;;;;;4.05;80.65;101751.19;5110168;28;20077;-74
2021/03/20 07:14:54;;;;;;;16.25;4.63;;;;;;;4.07;80.19;101751.81;5031832;28;20437;-73
2021/03/20 07:17:26;;;;;;;12.60;4.72;;;;;;;4.08;80.55;101748.06;5097606;28;20119;-73
2021/03/20 07:19:52;;;;;;;13.02;5.20;;;;;;;4.11;80.72;101736.88;5111123;28;20066;-72
2021/03/20 07:22:25;;;;;;;14.48;5.70;;;;;;;4.17;80.16;101752.22;5109748;28;20027;-73
2021/03/20 07:24:50;;;;;;;11.13;5.15;;;;;;;4.19;80.69;101750.16;5084887;28;20038;-72
2021/03/20 07:27:15;;;;;;;15.45;5.80;;;;;;;4.19;80.29;101755.53;5108121;28;20031;-73
2021/03/20 07:30:01;;;;;;;9.60;5.15;;;;;;;4.17;80.25;101746.81;5102172;28;20035;-74
2021/03/20 07:32:26;;;;;;;12.85;4.60;;;;;;;4.18;80.17;101748.50;5104941;28;20031;-74
2021/03/20 07:34:56;;;;;;;19.33;5.60;;;;;;;4.18;80.40;101743.09;5111002;28;20024;-75
2021/03/20 07:37:26;;;;;;;18.02;5.97;;;;;;;4.20;80.24;101736.47;5092781;28;20024;-74
2021/03/20 07:39:59;;;;;;;12.93;5.22;;;;;;;4.20;80.35;101735.59;5108560;28;20027;-74
2021/03/20 07:42:38;;;;;;;13.40;5.97;;;;;;;4.20;80.32;101735.59;5093199;28;20035;-74
2021/03/20 07:45:05;;;;;;;12.68;5.38;;;;;;;4.21;80.32;101732.72;5101760;28;20038;-74
2021/03/20 07:47:38;;;;;;;18.95;6.15;;;;;;;4.23;80.13;101729.81;5106110;28;20118;-75
2021/03/20 07:50:19;;;;;;;10.68;4.30;;;;;;;4.23;80.26;101724.41;5110996;28;20044;-75
2021/03/20 07:53:01;;;;;;;15.70;5.22;;;;;;;4.19;79.90;101717.75;5108220;28;20026;-74
2021/03/20 07:55:27;;;;;;;;;;;;;;;4.22;79.78;101711.94;5102272;28;20262;-75
2021/03/20 07:57:56;;;;;;;17.83;5.60;;;;;;;4.23;79.85;101702.81;5109756;28;20412;-73
2021/03/20 08:00:25;;;;;;;12.35;5.00;;;;;;;4.27;79.99;101704.06;5088723;28;20024;-75
2021/03/20 08:02:51;;;;;;;16.10;6.32;;;;;;;4.30;80.15;101694.72;5103627;28;20023;-74
2021/03/20 08:05:20;;;;;;;15.20;6.25;;;;;;;4.31;79.96;101694.50;5108458;28;20072;-74
2021/03/20 08:07:49;;;;;;;20.25;6.30;;;;;;;4.35;79.96;101698.44;5104083;28;20546;-74
2021/03/20 08:10:18;;;;;;;21.35;6.47;;;;;;;4.39;79.72;101701.53;5102899;28;20215;-74
2021/03/20 08:12:50;;;;;;;19.30;5.70;;;;;;;4.39;79.44;101691.59;5108359;28;20037;-75
2021/03/20 08:15:18;;;;;;;14.80;5.57;;;;;;;4.43;79.76;101697.38;5111872;28;20023;-75
2021/03/20 08:17:43;;;;;;;13.25;5.07;;;;;;;4.43;80.04;101683.88;5091329;28;20023;-72
2021/03/20 08:20:14;;;;;;;15.75;5.60;;;;;;;4.44;79.73;101675.56;5085388;28;20137;-73
2021/03/20 08:22:48;;;;;;;16.52;6.18;;;;;;;4.50;79.89;101689.25;5090068;28;20035;-72
2021/03/20 08:25:32;;;;;;;19.00;5.80;;;;;;;4.46;79.84;101678.06;5108379;28;20032;-71
2021/03/20 08:28:16;;;;;;;13.85;6.05;;;;;;;4.49;80.09;101679.50;5101020;28;20027;-72
2021/03/20 08:30:56;;;;;;;21.92;6.10;;;;;;;4.51;79.80;101672.03;5109771;28;20109;-73
2021/03/20 08:33:46;;;;;;;17.13;5.95;;;;;;;4.48;79.99;101673.28;5102851;28;20059;-73
2021/03/20 08:36:39;;;;;;;25.45;7.05;;;;;;;4.52;80.02;101665.59;5105542;28;20031;-74
2021/03/20 08:39:38;;;;;;;25.55;7.68;;;;;;;4.55;80.31;101657.88;5104067;28;20019;-73
2021/03/20 08:42:30;;;;;;;17.65;6.70;;;;;;;4.60;80.28;101657.25;5108129;28;20140;-72
2021/03/20 08:45:20;;;;;;;13.02;4.97;;;;;;;4.57;80.18;101661.22;5103825;28;20028;-73
2021/03/20 08:47:51;;;;;;;18.02;5.72;;;;;;;4.54;80.36;101658.09;5123226;27;20046;-74
2021/03/20 08:50:48;;;;;;;17.10;6.03;;;;;;;4.52;80.58;101654.78;5113954;28;20030;-74
2021/03/20 08:53:44;;;;;;;17.92;7.07;;;;;;;4.53;80.76;101649.19;5121048;28;20035;-73
2021/03/20 08:56:46;;;;;;;18.70;7.30;;;;;;;4.54;80.93;101647.31;5111004;28;20019;-74
2021/03/20 08:59:21;;;;;;;18.00;6.72;;;;;;;4.52;81.17;101641.28;5109515;28;20482;-74
2021/03/20 09:01:58;;;;;;;15.18;6.43;;;;;;;4.55;81.13;101647.06;5103979;28;20438;-73
2021/03/20 09:04:29;;;;;;;30.95;9.05;;;;;;;4.60;81.32;101639.16;5097328;28;20031;-73
2021/03/20 09:07:03;;;;;;;21.80;6.80;;;;;;;4.65;81.41;101641.25;5104994;28;20035;-73
2021/03/20 09:09:33;;;;;;;21.23;8.00;;;;;;;4.66;81.37;101640.19;5111268;28;20027;-73
2021/03/20 09:12:29;;;;;;;22.05;8.13;;;;;;;4.72;81.47;101635.81;5127017;27;20042;-72
2021/03/20 09:14:55;;;;;;;18.98;8.43;;;;;;;4.75;81.78;101630.00;5095370;28;20468;-72
2021/03/20 09:17:24;;;;;;;24.52;7.85;;;;;;;4.74;81.94;101623.75;5111331;28;20038;-72
2021/03/20 09:20:22;;;;;;;30.77;10.98;;;;;;;4.78;81.89;101624.97;5104943;28;20027;-72
2021/03/20 09:22:48;;;;;;;24.17;8.23;;;;;;;4.84;81.95;101624.13;5124630;28;20028;-72
2021/03/20 09:25:38;;;;;;;29.75;9.95;;;;;;;4.83;81.85;101617.06;5092921;28;20043;-73
2021/03/20 09:28:16;;;;;;;26.50;10.40;;;;;;;4.87;81.95;101618.28;5109095;28;20140;-73
2021/03/20 09:30:45;;;;;;;21.90;8.18;;;;;;;4.88;82.01;101617.25;5112748;28;20532;-73
2021/03/20 09:33:26;;;;;;;25.45;8.20;;;;;;;4.81;82.52;101619.16;5091499;28;20035;-73
2021/03/20 09:35:53;;;;;;;27.50;10.35;;;;;;;4.77;82.44;101617.09;5126941;27;20046;-73
2021/03/20 09:38:49;;;;;;;39.55;9.73;;;;;;;4.78;82.40;101613.34;5109864;27;20067;-73
2021/03/20 09:41:14;;;;;;;34.65;11.07;;;;;;;4.80;82.72;101614.81;5088602;27;20130;-74
2021/03/20 09:43:39;;;;;;;27.35;8.95;;;;;;;4.82;82.64;101614.56;5132715;27;20106;-73
2021/03/20 09:46:33;;;;;;;21.50;8.18;;;;;;;4.82;82.76;101620.78;5132545;27;20030;-73
2021/03/20 09:48:59;;;;;;;30.05;9.88;;;;;;;4.84;83.20;101605.22;5131846;27;20476;-73
2021/03/20 09:51:49;;;;;;;25.88;9.68;;;;;;;4.90;82.96;101612.44;5092248;27;20046;-73
2021/03/20 09:54:24;;;;;;;27.30;8.68;;;;;;;4.89;82.65;101605.38;5100829;27;20032;-73
2021/03/20 09:57:22;;;;;;;25.60;9.40;;;;;;;4.83;83.47;101595.44;5133045;27;20311;-73
2021/03/20 09:59:48;;;;;;;22.75;8.63;;;;;;;4.86;83.51;101592.31;5095173;27;20392;-72
2021/03/20 10:02:20;;;;;;;27.98;9.73;;;;;;;4.92;83.25;101596.03;5130530;27;20096;-73
2021/03/20 10:04:54;;;;;;;30.58;9.93;;;;;;;4.94;83.44;101580.44;5130651;27;20023;-73
2021/03/20 10:07:21;;;;;;;27.10;10.02;;;;;;;4.97;83.49;101585.41;5127745;27;20755;-73
2021/03/20 10:09:52;;;;;;;25.40;9.07;;;;;;;5.01;83.34;101580.38;5110825;27;20344;-73
2021/03/20 10:12:22;;;;;;;31.58;10.52;;;;;;;5.01;83.30;101575.78;5109278;27;20402;-73
2021/03/20 10:14:53;;;;;;;30.40;10.57;;;;;;;5.08;83.33;101560.38;5112871;27;20134;-73
2021/03/20 10:17:20;;;;;;;37.33;12.10;;;;;;;5.10;83.32;101557.44;5128356;27;20073;-73
2021/03/20 10:19:53;;;;;;;36.78;12.60;;;;;;;5.12;83.38;101553.47;5108069;27;20051;-73
2021/03/20 10:22:30;;;;;;;23.23;9.63;;;;;;;5.17;83.30;101547.41;5108979;27;20038;-73
2021/03/20 10:24:55;;;;;;;35.63;10.98;;;;;;;5.20;83.17;101544.28;5095568;27;20051;-74
2021/03/20 10:27:25;;;;;;;29.55;11.15;;;;;;;5.25;83.16;101539.03;5108943;27;20034;-73
2021/03/20 10:29:51;;;;;;;24.58;9.77;;;;;;;5.24;83.29;101534.69;5110652;27;20019;-73
2021/03/20 10:32:21;;;;;;;33.65;11.02;;;;;;;5.25;83.15;101528.22;5097824;27;20054;-74
2021/03/20 10:34:55;;;;;;;34.00;10.90;;;;;;;5.30;83.18;101514.88;5131627;27;20868;-72
2021/03/20 10:37:22;;;;;;;30.40;10.38;;;;;;;5.30;82.98;101512.19;5112418;27;20379;-73
2021/03/20 10:39:49;;;;;;;39.45;12.07;;;;;;;5.25;83.29;101508.47;5113431;27;20204;-73
2021/03/20 10:42:25;;;;;;;21.88;8.93;;;;;;;5.24;83.42;101515.78;5111465;27;20027;-73
2021/03/20 10:44:57;;;;;;;26.42;9.10;;;;;;;5.22;83.32;101511.63;5097016;27;20031;-73
2021/03/20 10:47:25;;;;;;;26.30;10.43;;;;;;;5.21;83.44;101518.91;5132379;27;20043;-73
2021/03/20 10:50:00;;;;;;;32.30;10.80;;;;;;;5.29;83.53;101507.84;5115662;27;20042;-73
2021/03/20 10:52:29;;;;;;;24.48;9.85;;;;;;;5.37;83.24;101503.19;5115273;27;20023;-73
2021/03/20 10:54:55;;;;;;;27.85;9.52;;;;;;;5.37;83.34;101508.59;5111435;27;20027;-73
2021/03/20 10:57:24;;;;;;;19.80;9.20;;;;;;;5.38;83.21;101512.97;5103703;27;20026;-73
2021/03/20 10:59:50;;;;;;;27.45;9.05;;;;;;;5.39;83.40;101511.91;5099063;27;20031;-73
2021/03/20 11:02:41;;;;;;;25.48;8.77;;;;;;;5.39;82.97;101501.09;5112875;27;20097;-73
2021/03/20 11:05:17;;;;;;;19.85;8.23;;;;;;;5.39;83.21;101491.09;5121336;27;20121;-73
2021/03/20 11:07:54;;;;;;;26.20;8.75;;;;;;;5.45;83.51;101482.06;5130027;27;20467;-73
2021/03/20 11:10:33;;;;;;;19.80;8.25;;;;;;;5.48;83.11;101478.97;5115283;27;20549;-73
2021/03/20 11:13:06;;;;;;;16.65;7.78;;;;;;;5.52;83.07;101463.91;5131932;27;20030;-73
2021/03/20 11:15:33;;;;;;;24.80;9.55;;;;;;;5.55;83.25;101447.25;5098334;27;20126;-73
2021/03/20 11:17:59;;;;;;;19.75;8.40;;;;;;;5.61;82.96;101450.09;5129531;27;20030;-72
2021/03/20 11:20:36;;;;;;;18.20;7.28;;;;;;;5.65;83.08;101444.03;5098960;27;20023;-73
2021/03/20 11:23:02;;;;;;;16.75;7.75;;;;;;;5.70;82.89;101443.34;5087570;27;20027;-72
2021/03/20 11:25:47;;;;;;;20.67;8.55;;;;;;;5.73;82.90;101449.16;5112500;27;20491;-72
2021/03/20 11:28:14;;;;;;;17.17;8.10;;;;;;;5.83;82.90;101450.50;5092837;27;20025;-72
2021/03/20 11:30:44;;;;;;;23.15;8.10;;;;;;;5.85;82.57;101461.91;5094649;28;20106;-73
2021/03/20 11:33:21;;;;;;;17.42;6.97;;;;;;;5.84;82.66;101444.00;5089569;27;20068;-72
2021/03/20 11:35:51;;;;;;;21.02;7.57;;;;;;;5.81;82.40;101439.91;5099689;27;20102;-72
2021/03/20 11:38:18;;;;;;;22.45;8.40;;;;;;;5.80;82.56;101432.81;5111162;27;20037;-71
2021/03/20 11:40:45;;;;;;;18.58;7.75;;;;;;;5.85;82.48;101429.44;5103799;27;20098;-73
2021/03/20 11:43:20;;;;;;;16.95;7.85;;;;;;;5.84;82.57;101412.38;5113286;27;20498;-72
2021/03/20 11:45:46;;;;;;;12.70;6.88;;;;;;;5.85;82.54;101405.09;5132383;27;20110;-72
2021/03/20 11:48:56;;;;;;;18.48;8.18;;;;;;;5.82;82.36;101408.25;5108581;27;20043;-72
2021/03/20 11:51:29;;;;;;;21.50;7.95;;;;;;;5.87;82.30;101389.47;5098493;27;20035;-72
2021/03/20 11:53:58;;;;;;;18.65;8.13;;;;;;;5.86;82.22;101393.22;5097257;27;20051;-73
2021/03/20 11:56:32;;;;;;;22.17;8.80;;;;;;;5.89;82.29;101371.09;5096345;27;20029;-72
2021/03/20 11:59:06;;;;;;;18.45;9.98;;;;;;;5.91;82.30;101359.00;5084617;27;20480;-73